TimeMDT,TemperatureF,Dew PointF,Humidity,Sea Level PressureIn,VisibilityMPH,Wind Direction,Wind SpeedMPH,Gust SpeedMPH,PrecipitationIn,Events,Conditions,WindDirDegrees,DateUTC
12:53 AM,42.1,27.0,55,29.78,10.0,WSW,5.8,-,N/A,,Overcast,240,2013-04-20 06:53:00
1:53 AM,39.9,28.0,63,29.78,10.0,SW,6.9,-,N/A,,Overcast,220,2013-04-20 07:53:00
2:53 AM,36.0,27.0,70,29.80,10.0,WSW,6.9,-,N/A,,Clear,250,2013-04-20 08:53:00
3:53 AM,39.0,28.0,65,29.78,10.0,West,11.5,-,N/A,,Overcast,260,2013-04-20 09:53:00
4:53 AM,41.0,27.0,57,29.79,10.0,West,10.4,-,N/A,,Overcast,270,2013-04-20 10:53:00
5:53 AM,39.0,27.0,62,29.81,10.0,WNW,8.1,-,N/A,,Mostly Cloudy,300,2013-04-20 11:53:00
6:53 AM,37.0,27.0,67,29.85,10.0,NW,5.8,-,N/A,,Clear,320,2013-04-20 12:53:00
7:53 AM,42.1,28.9,60,29.86,10.0,NNE,5.8,-,N/A,,Clear,20,2013-04-20 13:53:00
8:53 AM,45.0,28.0,52,29.87,10.0,East,4.6,-,N/A,,Partly Cloudy,100,2013-04-20 14:53:00
9:53 AM,46.9,28.9,50,29.86,10.0,SE,8.1,-,N/A,,Clear,130,2013-04-20 15:53:00
10:53 AM,48.9,28.9,46,29.86,10.0,SSE,8.1,-,N/A,,Clear,150,2013-04-20 16:53:00
11:53 AM,50.0,25.0,38,29.85,10.0,SW,6.9,-,N/A,,Scattered Clouds,230,2013-04-20 17:53:00
12:53 PM,55.9,19.0,24,29.81,10.0,WNW,19.6,26.5,N/A,,Partly Cloudy,290,2013-04-20 18:53:00
1:53 PM,57.0,16.0,20,29.80,10.0,West,19.6,27.6,N/A,,Clear,280,2013-04-20 19:53:00
2:53 PM,59.0,16.0,19,29.78,10.0,WNW,15.0,24.2,N/A,,Partly Cloudy,290,2013-04-20 20:53:00
3:23 PM,57.2,17.6,21,29.85,10.0,West,18.4,26.5,N/A,,Mostly Cloudy,270,2013-04-20 21:23:00
3:53 PM,57.0,21.9,26,29.79,10.0,West,16.1,27.6,N/A,,Scattered Clouds,260,2013-04-20 21:53:00
4:53 PM,59.0,14.0,17,29.77,10.0,WNW,23.0,32.2,N/A,,Clear,300,2013-04-20 22:53:00
5:53 PM,54.0,17.1,23,29.80,10.0,WNW,25.3,32.2,N/A,,Clear,290,2013-04-20 23:53:00
6:53 PM,53.1,19.9,27,29.83,10.0,WNW,27.6,33.4,N/A,,Partly Cloudy,290,2013-04-21 00:53:00
7:53 PM,48.0,23.0,37,29.86,10.0,WNW,28.8,33.4,N/A,,Scattered Clouds,300,2013-04-21 01:53:00
8:53 PM,46.9,21.9,37,29.88,10.0,WNW,19.6,26.5,N/A,,Partly Cloudy,300,2013-04-21 02:53:00
9:53 PM,45.0,24.1,44,29.91,10.0,WNW,19.6,-,N/A,,Clear,290,2013-04-21 03:53:00
10:53 PM,45.0,25.0,46,29.91,10.0,West,16.1,25.3,N/A,,Mostly Cloudy,280,2013-04-21 04:53:00
11:53 PM,45.0,26.1,48,29.91,10.0,WNW,18.4,-,N/A,,Mostly Cloudy,290,2013-04-21 05:53:00